sensor_id;sensor_type;location;lat;lon;timestamp;P1;durP1;ratioP1;P2;durP2;ratioP2
15938;SDS011;8068;51.322;9.450;2022-10-16T00:02:08;5.73;;;2.03;;
15938;SDS011;8068;51.322;9.450;2022-10-16T00:04:34;8.87;;;2.40;;
15938;SDS011;8068;51.322;9.450;2022-10-16T00:07:00;2.47;;;2.37;;
15938;SDS011;8068;51.322;9.450;2022-10-16T00:09:27;2.70;;;2.50;;
15938;SDS011;8068;51.322;9.450;2022-10-16T00:11:53;2.00;;;1.90;;
15938;SDS011;8068;51.322;9.450;2022-10-16T00:14:20;2.33;;;2.20;;
15938;SDS011;8068;51.322;9.450;2022-10-16T00:16:46;2.07;;;1.97;;
15938;SDS011;8068;51.322;9.450;2022-10-16T00:19:12;2.97;;;2.10;;
15938;SDS011;8068;51.322;9.450;2022-10-16T00:21:38;6.87;;;2.33;;
15938;SDS011;8068;51.322;9.450;2022-10-16T00:24:06;2.13;;;2.03;;
15938;SDS011;8068;51.322;9.450;2022-10-16T00:26:34;2.80;;;2.70;;
15938;SDS011;8068;51.322;9.450;2022-10-16T00:29:02;2.20;;;2.10;;
15938;SDS011;8068;51.322;9.450;2022-10-16T00:31:29;2.47;;;2.20;;
15938;SDS011;8068;51.322;9.450;2022-10-16T00:33:55;7.33;;;3.03;;
15938;SDS011;8068;51.322;9.450;2022-10-16T00:36:22;2.57;;;2.47;;
15938;SDS011;8068;51.322;9.450;2022-10-16T00:38:53;2.90;;;2.70;;
15938;SDS011;8068;51.322;9.450;2022-10-16T00:41:21;3.20;;;3.10;;
15938;SDS011;8068;51.322;9.450;2022-10-16T00:46:35;3.67;;;3.47;;
15938;SDS011;8068;51.322;9.450;2022-10-16T00:49:11;4.60;;;2.57;;
15938;SDS011;8068;51.322;9.450;2022-10-16T00:51:40;3.33;;;3.20;;
15938;SDS011;8068;51.322;9.450;2022-10-16T00:54:14;3.00;;;2.90;;
15938;SDS011;8068;51.322;9.450;2022-10-16T00:56:42;2.80;;;2.70;;
15938;SDS011;8068;51.322;9.450;2022-10-16T00:59:11;3.80;;;3.10;;
15938;SDS011;8068;51.322;9.450;2022-10-16T01:01:41;5.73;;;3.00;;
15938;SDS011;8068;51.322;9.450;2022-10-16T01:04:07;2.40;;;2.30;;
15938;SDS011;8068;51.322;9.450;2022-10-16T01:17:27;4.03;;;3.27;;
15938;SDS011;8068;51.322;9.450;2022-10-16T01:20:01;3.40;;;3.10;;
15938;SDS011;8068;51.322;9.450;2022-10-16T01:22:33;5.70;;;2.93;;
15938;SDS011;8068;51.322;9.450;2022-10-16T01:25:17;9.60;;;3.30;;
15938;SDS011;8068;51.322;9.450;2022-10-16T01:27:56;4.00;;;3.30;;
15938;SDS011;8068;51.322;9.450;2022-10-16T01:30:24;3.77;;;3.57;;
15938;SDS011;8068;51.322;9.450;2022-10-16T01:32:56;3.60;;;3.40;;
15938;SDS011;8068;51.322;9.450;2022-10-16T01:35:27;5.80;;;4.20;;
15938;SDS011;8068;51.322;9.450;2022-10-16T01:40:27;5.97;;;3.80;;
15938;SDS011;8068;51.322;9.450;2022-10-16T01:42:55;3.50;;;3.40;;
15938;SDS011;8068;51.322;9.450;2022-10-16T01:45:25;3.50;;;3.30;;
15938;SDS011;8068;51.322;9.450;2022-10-16T01:47:52;3.70;;;3.60;;
15938;SDS011;8068;51.322;9.450;2022-10-16T01:50:19;6.80;;;6.40;;
15938;SDS011;8068;51.322;9.450;2022-10-16T01:52:47;4.40;;;4.10;;
15938;SDS011;8068;51.322;9.450;2022-10-16T01:55:17;5.70;;;3.63;;
15938;SDS011;8068;51.322;9.450;2022-10-16T01:57:48;3.30;;;3.00;;
15938;SDS011;8068;51.322;9.450;2022-10-16T02:00:16;5.50;;;3.13;;
15938;SDS011;8068;51.322;9.450;2022-10-16T02:02:44;2.83;;;2.70;;
15938;SDS011;8068;51.322;9.450;2022-10-16T02:07:52;3.60;;;3.37;;
15938;SDS011;8068;51.322;9.450;2022-10-16T02:10:18;2.73;;;2.53;;
15938;SDS011;8068;51.322;9.450;2022-10-16T02:12:46;3.00;;;2.80;;
15938;SDS011;8068;51.322;9.450;2022-10-16T02:15:15;4.50;;;2.80;;
15938;SDS011;8068;51.322;9.450;2022-10-16T02:17:42;2.80;;;2.70;;
15938;SDS011;8068;51.322;9.450;2022-10-16T02:20:08;3.70;;;3.60;;
15938;SDS011;8068;51.322;9.450;2022-10-16T02:22:38;3.10;;;3.00;;
15938;SDS011;8068;51.322;9.450;2022-10-16T02:25:08;3.80;;;3.50;;
15938;SDS011;8068;51.322;9.450;2022-10-16T02:27:39;6.80;;;3.40;;
15938;SDS011;8068;51.322;9.450;2022-10-16T02:30:09;3.93;;;3.60;;
15938;SDS011;8068;51.322;9.450;2022-10-16T02:32:38;3.90;;;3.60;;
15938;SDS011;8068;51.322;9.450;2022-10-16T02:35:06;4.13;;;3.50;;
15938;SDS011;8068;51.322;9.450;2022-10-16T02:37:33;13.43;;;3.87;;
15938;SDS011;8068;51.322;9.450;2022-10-16T02:39:59;4.90;;;3.80;;
15938;SDS011;8068;51.322;9.450;2022-10-16T02:42:32;4.23;;;3.93;;
15938;SDS011;8068;51.322;9.450;2022-10-16T02:45:00;4.20;;;3.90;;
15938;SDS011;8068;51.322;9.450;2022-10-16T02:47:26;4.00;;;3.80;;
15938;SDS011;8068;51.322;9.450;2022-10-16T02:49:52;4.67;;;4.50;;
15938;SDS011;8068;51.322;9.450;2022-10-16T02:52:18;3.83;;;3.73;;
15938;SDS011;8068;51.322;9.450;2022-10-16T02:54:44;4.50;;;4.10;;
15938;SDS011;8068;51.322;9.450;2022-10-16T02:57:10;4.77;;;4.40;;
15938;SDS011;8068;51.322;9.450;2022-10-16T02:59:37;6.50;;;4.67;;
15938;SDS011;8068;51.322;9.450;2022-10-16T03:02:03;4.57;;;4.20;;
15938;SDS011;8068;51.322;9.450;2022-10-16T03:04:29;3.63;;;3.43;;
15938;SDS011;8068;51.322;9.450;2022-10-16T03:06:55;4.03;;;3.93;;
15938;SDS011;8068;51.322;9.450;2022-10-16T03:09:21;4.97;;;4.57;;
15938;SDS011;8068;51.322;9.450;2022-10-16T03:11:47;5.37;;;4.50;;
15938;SDS011;8068;51.322;9.450;2022-10-16T03:14:13;5.30;;;5.00;;
15938;SDS011;8068;51.322;9.450;2022-10-16T03:16:39;5.93;;;5.50;;
15938;SDS011;8068;51.322;9.450;2022-10-16T03:19:05;4.87;;;4.57;;
15938;SDS011;8068;51.322;9.450;2022-10-16T03:21:31;6.00;;;5.53;;
15938;SDS011;8068;51.322;9.450;2022-10-16T03:23:58;5.80;;;5.40;;
15938;SDS011;8068;51.322;9.450;2022-10-16T03:26:24;5.17;;;4.97;;
15938;SDS011;8068;51.322;9.450;2022-10-16T03:28:50;5.27;;;5.03;;
15938;SDS011;8068;51.322;9.450;2022-10-16T03:31:16;4.83;;;4.43;;
15938;SDS011;8068;51.322;9.450;2022-10-16T03:33:42;5.10;;;4.80;;
15938;SDS011;8068;51.322;9.450;2022-10-16T03:36:08;5.27;;;5.07;;
15938;SDS011;8068;51.322;9.450;2022-10-16T03:38:34;5.20;;;4.90;;
15938;SDS011;8068;51.322;9.450;2022-10-16T03:41:00;5.73;;;5.23;;
15938;SDS011;8068;51.322;9.450;2022-10-16T03:43:26;5.10;;;4.90;;
15938;SDS011;8068;51.322;9.450;2022-10-16T03:45:52;5.87;;;5.57;;
15938;SDS011;8068;51.322;9.450;2022-10-16T03:48:18;6.03;;;5.83;;
15938;SDS011;8068;51.322;9.450;2022-10-16T03:50:45;5.90;;;5.70;;
15938;SDS011;8068;51.322;9.450;2022-10-16T03:53:14;5.90;;;5.50;;
15938;SDS011;8068;51.322;9.450;2022-10-16T03:55:43;5.95;;;5.65;;
15938;SDS011;8068;51.322;9.450;2022-10-16T03:58:09;5.97;;;5.67;;
15938;SDS011;8068;51.322;9.450;2022-10-16T04:00:39;6.10;;;5.80;;
15938;SDS011;8068;51.322;9.450;2022-10-16T04:03:07;5.50;;;5.40;;
15938;SDS011;8068;51.322;9.450;2022-10-16T04:05:33;6.33;;;5.90;;
15938;SDS011;8068;51.322;9.450;2022-10-16T04:07:59;6.80;;;5.27;;
15938;SDS011;8068;51.322;9.450;2022-10-16T04:10:25;5.43;;;4.57;;
15938;SDS011;8068;51.322;9.450;2022-10-16T04:12:51;5.20;;;4.90;;
15938;SDS011;8068;51.322;9.450;2022-10-16T04:15:17;6.10;;;4.37;;
15938;SDS011;8068;51.322;9.450;2022-10-16T04:17:43;5.40;;;4.90;;
15938;SDS011;8068;51.322;9.450;2022-10-16T04:20:09;5.37;;;4.93;;
15938;SDS011;8068;51.322;9.450;2022-10-16T04:22:35;6.07;;;5.63;;
15938;SDS011;8068;51.322;9.450;2022-10-16T04:25:02;5.90;;;5.60;;
15938;SDS011;8068;51.322;9.450;2022-10-16T04:27:28;5.30;;;5.07;;
15938;SDS011;8068;51.322;9.450;2022-10-16T04:29:57;5.67;;;5.37;;
15938;SDS011;8068;51.322;9.450;2022-10-16T04:32:23;6.40;;;5.80;;
15938;SDS011;8068;51.322;9.450;2022-10-16T04:34:49;6.87;;;5.47;;
15938;SDS011;8068;51.322;9.450;2022-10-16T04:37:15;5.90;;;5.60;;
15938;SDS011;8068;51.322;9.450;2022-10-16T04:39:41;5.93;;;5.53;;
15938;SDS011;8068;51.322;9.450;2022-10-16T04:42:08;4.63;;;4.43;;
15938;SDS011;8068;51.322;9.450;2022-10-16T04:44:34;5.40;;;5.03;;
15938;SDS011;8068;51.322;9.450;2022-10-16T04:47:00;6.17;;;5.40;;
15938;SDS011;8068;51.322;9.450;2022-10-16T04:49:26;5.93;;;5.43;;
15938;SDS011;8068;51.322;9.450;2022-10-16T04:51:52;5.60;;;5.17;;
15938;SDS011;8068;51.322;9.450;2022-10-16T04:54:18;5.50;;;4.57;;
15938;SDS011;8068;51.322;9.450;2022-10-16T04:56:44;5.47;;;5.17;;
15938;SDS011;8068;51.322;9.450;2022-10-16T04:59:14;6.20;;;5.80;;
15938;SDS011;8068;51.322;9.450;2022-10-16T05:01:40;6.90;;;6.20;;
15938;SDS011;8068;51.322;9.450;2022-10-16T05:04:06;6.37;;;5.37;;
15938;SDS011;8068;51.322;9.450;2022-10-16T05:06:32;4.50;;;3.90;;
15938;SDS011;8068;51.322;9.450;2022-10-16T05:08:58;7.43;;;5.40;;
15938;SDS011;8068;51.322;9.450;2022-10-16T05:11:24;6.07;;;4.10;;
15938;SDS011;8068;51.322;9.450;2022-10-16T05:13:50;3.80;;;3.50;;
15938;SDS011;8068;51.322;9.450;2022-10-16T05:16:21;3.67;;;3.57;;
15938;SDS011;8068;51.322;9.450;2022-10-16T05:18:47;5.37;;;5.03;;
15938;SDS011;8068;51.322;9.450;2022-10-16T05:21:18;6.27;;;4.40;;
15938;SDS011;8068;51.322;9.450;2022-10-16T05:23:45;4.90;;;4.50;;
15938;SDS011;8068;51.322;9.450;2022-10-16T05:26:11;4.93;;;4.73;;
15938;SDS011;8068;51.322;9.450;2022-10-16T05:28:37;4.23;;;4.03;;
15938;SDS011;8068;51.322;9.450;2022-10-16T05:31:04;6.10;;;4.20;;
15938;SDS011;8068;51.322;9.450;2022-10-16T05:33:33;3.47;;;3.17;;
15938;SDS011;8068;51.322;9.450;2022-10-16T05:36:03;4.20;;;3.83;;
15938;SDS011;8068;51.322;9.450;2022-10-16T05:38:33;6.30;;;3.43;;
15938;SDS011;8068;51.322;9.450;2022-10-16T05:41:00;5.13;;;4.00;;
15938;SDS011;8068;51.322;9.450;2022-10-16T05:43:29;4.63;;;4.33;;
15938;SDS011;8068;51.322;9.450;2022-10-16T05:45:59;4.00;;;3.80;;
15938;SDS011;8068;51.322;9.450;2022-10-16T05:48:29;4.67;;;4.37;;
15938;SDS011;8068;51.322;9.450;2022-10-16T05:50:56;3.73;;;3.63;;
15938;SDS011;8068;51.322;9.450;2022-10-16T05:53:33;4.03;;;3.83;;
15938;SDS011;8068;51.322;9.450;2022-10-16T05:56:00;4.00;;;3.70;;
15938;SDS011;8068;51.322;9.450;2022-10-16T05:58:33;4.20;;;3.90;;
15938;SDS011;8068;51.322;9.450;2022-10-16T06:01:02;3.23;;;2.93;;
15938;SDS011;8068;51.322;9.450;2022-10-16T06:03:33;2.90;;;2.73;;
15938;SDS011;8068;51.322;9.450;2022-10-16T06:06:06;3.57;;;3.40;;
15938;SDS011;8068;51.322;9.450;2022-10-16T06:08:38;3.43;;;3.30;;
15938;SDS011;8068;51.322;9.450;2022-10-16T06:11:05;5.10;;;3.13;;
15938;SDS011;8068;51.322;9.450;2022-10-16T06:13:33;3.50;;;3.03;;
15938;SDS011;8068;51.322;9.450;2022-10-16T06:15:59;2.60;;;2.50;;
15938;SDS011;8068;51.322;9.450;2022-10-16T06:18:26;2.20;;;2.10;;
15938;SDS011;8068;51.322;9.450;2022-10-16T06:20:53;4.00;;;3.70;;
15938;SDS011;8068;51.322;9.450;2022-10-16T06:23:20;3.40;;;3.00;;
15938;SDS011;8068;51.322;9.450;2022-10-16T06:25:46;3.00;;;2.40;;
15938;SDS011;8068;51.322;9.450;2022-10-16T06:28:32;2.43;;;2.23;;
15938;SDS011;8068;51.322;9.450;2022-10-16T06:30:59;2.60;;;2.40;;
15938;SDS011;8068;51.322;9.450;2022-10-16T06:33:32;3.77;;;2.67;;
15938;SDS011;8068;51.322;9.450;2022-10-16T06:36:09;2.57;;;2.40;;
15938;SDS011;8068;51.322;9.450;2022-10-16T06:38:37;2.10;;;2.00;;
15938;SDS011;8068;51.322;9.450;2022-10-16T06:41:03;2.53;;;2.27;;
15938;SDS011;8068;51.322;9.450;2022-10-16T06:43:30;2.10;;;1.90;;
15938;SDS011;8068;51.322;9.450;2022-10-16T06:46:03;2.30;;;2.20;;
15938;SDS011;8068;51.322;9.450;2022-10-16T06:48:30;2.70;;;2.50;;
15938;SDS011;8068;51.322;9.450;2022-10-16T06:53:32;1.67;;;1.57;;
15938;SDS011;8068;51.322;9.450;2022-10-16T06:56:12;1.90;;;1.80;;
15938;SDS011;8068;51.322;9.450;2022-10-16T06:58:39;3.83;;;1.70;;
15938;SDS011;8068;51.322;9.450;2022-10-16T07:01:06;2.60;;;1.70;;
15938;SDS011;8068;51.322;9.450;2022-10-16T07:03:33;1.43;;;1.30;;
15938;SDS011;8068;51.322;9.450;2022-10-16T07:06:04;1.57;;;1.47;;
15938;SDS011;8068;51.322;9.450;2022-10-16T07:08:32;1.40;;;1.17;;
15938;SDS011;8068;51.322;9.450;2022-10-16T07:10:59;2.03;;;1.50;;
15938;SDS011;8068;51.322;9.450;2022-10-16T07:13:26;1.10;;;0.80;;
15938;SDS011;8068;51.322;9.450;2022-10-16T07:15:52;3.57;;;1.30;;
15938;SDS011;8068;51.322;9.450;2022-10-16T07:18:18;1.83;;;1.73;;
15938;SDS011;8068;51.322;9.450;2022-10-16T07:20:45;1.10;;;0.80;;
15938;SDS011;8068;51.322;9.450;2022-10-16T07:23:11;4.87;;;0.97;;
15938;SDS011;8068;51.322;9.450;2022-10-16T07:25:37;1.00;;;0.70;;
15938;SDS011;8068;51.322;9.450;2022-10-16T07:28:03;1.30;;;0.90;;
15938;SDS011;8068;51.322;9.450;2022-10-16T07:30:29;4.70;;;0.80;;
15938;SDS011;8068;51.322;9.450;2022-10-16T07:32:55;1.00;;;0.70;;
15938;SDS011;8068;51.322;9.450;2022-10-16T07:35:21;0.90;;;0.60;;
15938;SDS011;8068;51.322;9.450;2022-10-16T07:37:48;4.10;;;0.60;;
15938;SDS011;8068;51.322;9.450;2022-10-16T07:40:14;1.00;;;0.70;;
15938;SDS011;8068;51.322;9.450;2022-10-16T07:42:40;2.50;;;0.70;;
15938;SDS011;8068;51.322;9.450;2022-10-16T07:45:06;6.53;;;0.70;;
15938;SDS011;8068;51.322;9.450;2022-10-16T07:47:32;1.63;;;0.87;;
15938;SDS011;8068;51.322;9.450;2022-10-16T07:49:58;1.23;;;0.73;;
15938;SDS011;8068;51.322;9.450;2022-10-16T07:52:24;3.00;;;0.90;;
15938;SDS011;8068;51.322;9.450;2022-10-16T07:54:50;1.10;;;0.70;;
15938;SDS011;8068;51.322;9.450;2022-10-16T07:57:16;1.17;;;1.07;;
15938;SDS011;8068;51.322;9.450;2022-10-16T07:59:45;2.60;;;2.30;;
15938;SDS011;8068;51.322;9.450;2022-10-16T08:02:11;1.10;;;0.87;;
15938;SDS011;8068;51.322;9.450;2022-10-16T08:04:38;1.70;;;1.33;;
15938;SDS011;8068;51.322;9.450;2022-10-16T08:07:04;1.13;;;1.03;;
15938;SDS011;8068;51.322;9.450;2022-10-16T08:09:30;1.30;;;1.20;;
15938;SDS011;8068;51.322;9.450;2022-10-16T08:11:56;1.30;;;1.20;;
15938;SDS011;8068;51.322;9.450;2022-10-16T08:14:27;1.27;;;1.00;;
15938;SDS011;8068;51.322;9.450;2022-10-16T08:16:53;12.33;;;1.43;;
15938;SDS011;8068;51.322;9.450;2022-10-16T08:19:19;1.47;;;1.37;;
15938;SDS011;8068;51.322;9.450;2022-10-16T08:21:48;2.53;;;1.23;;
15938;SDS011;8068;51.322;9.450;2022-10-16T08:24:14;1.30;;;1.20;;
15938;SDS011;8068;51.322;9.450;2022-10-16T08:26:40;1.97;;;0.97;;
15938;SDS011;8068;51.322;9.450;2022-10-16T08:29:06;5.07;;;4.60;;
15938;SDS011;8068;51.322;9.450;2022-10-16T08:31:33;2.00;;;1.90;;
15938;SDS011;8068;51.322;9.450;2022-10-16T08:33:59;2.67;;;1.53;;
15938;SDS011;8068;51.322;9.450;2022-10-16T08:36:25;2.70;;;1.20;;
15938;SDS011;8068;51.322;9.450;2022-10-16T08:38:51;2.23;;;1.13;;
15938;SDS011;8068;51.322;9.450;2022-10-16T08:41:22;1.00;;;0.80;;
15938;SDS011;8068;51.322;9.450;2022-10-16T08:46:41;2.00;;;1.27;;
15938;SDS011;8068;51.322;9.450;2022-10-16T08:49:16;2.30;;;1.70;;
15938;SDS011;8068;51.322;9.450;2022-10-16T08:51:42;4.20;;;2.50;;
15938;SDS011;8068;51.322;9.450;2022-10-16T08:54:18;1.53;;;1.20;;
15938;SDS011;8068;51.322;9.450;2022-10-16T08:56:48;2.80;;;1.30;;
15938;SDS011;8068;51.322;9.450;2022-10-16T08:59:14;1.57;;;1.37;;
15938;SDS011;8068;51.322;9.450;2022-10-16T09:01:44;2.10;;;1.03;;
15938;SDS011;8068;51.322;9.450;2022-10-16T09:15:00;2.83;;;1.00;;
15938;SDS011;8068;51.322;9.450;2022-10-16T09:17:59;1.10;;;0.80;;
15938;SDS011;8068;51.322;9.450;2022-10-16T09:23:21;0.90;;;0.60;;
15938;SDS011;8068;51.322;9.450;2022-10-16T09:25:52;3.73;;;0.80;;
15938;SDS011;8068;51.322;9.450;2022-10-16T09:28:19;1.00;;;0.60;;
15938;SDS011;8068;51.322;9.450;2022-10-16T09:30:46;1.00;;;0.50;;
15938;SDS011;8068;51.322;9.450;2022-10-16T09:33:14;4.07;;;0.60;;
15938;SDS011;8068;51.322;9.450;2022-10-16T09:35:45;1.03;;;0.60;;
15938;SDS011;8068;51.322;9.450;2022-10-16T09:38:34;1.93;;;0.60;;
15938;SDS011;8068;51.322;9.450;2022-10-16T09:41:13;1.10;;;0.70;;
15938;SDS011;8068;51.322;9.450;2022-10-16T09:43:47;1.30;;;0.70;;
15938;SDS011;8068;51.322;9.450;2022-10-16T09:46:21;6.10;;;1.10;;
15938;SDS011;8068;51.322;9.450;2022-10-16T09:48:51;4.30;;;0.70;;
15938;SDS011;8068;51.322;9.450;2022-10-16T09:51:25;1.10;;;0.67;;
15938;SDS011;8068;51.322;9.450;2022-10-16T09:53:57;1.10;;;0.50;;
15938;SDS011;8068;51.322;9.450;2022-10-16T09:56:28;2.60;;;0.60;;
15938;SDS011;8068;51.322;9.450;2022-10-16T09:58:59;1.10;;;0.63;;
15938;SDS011;8068;51.322;9.450;2022-10-16T10:01:32;1.70;;;1.27;;
15938;SDS011;8068;51.322;9.450;2022-10-16T10:04:03;2.73;;;0.70;;
15938;SDS011;8068;51.322;9.450;2022-10-16T10:06:31;1.33;;;0.60;;
15938;SDS011;8068;51.322;9.450;2022-10-16T10:09:04;1.00;;;0.60;;
15938;SDS011;8068;51.322;9.450;2022-10-16T10:11:42;0.90;;;0.50;;
15938;SDS011;8068;51.322;9.450;2022-10-16T10:14:15;1.40;;;0.60;;
15938;SDS011;8068;51.322;9.450;2022-10-16T10:16:43;1.30;;;0.67;;
15938;SDS011;8068;51.322;9.450;2022-10-16T10:19:16;4.27;;;0.50;;
15938;SDS011;8068;51.322;9.450;2022-10-16T10:21:44;2.13;;;0.60;;
15938;SDS011;8068;51.322;9.450;2022-10-16T10:24:11;2.27;;;0.60;;
15938;SDS011;8068;51.322;9.450;2022-10-16T10:26:39;1.00;;;0.53;;
15938;SDS011;8068;51.322;9.450;2022-10-16T10:32:14;2.70;;;0.60;;
15938;SDS011;8068;51.322;9.450;2022-10-16T10:58:27;1.00;;;0.57;;
15938;SDS011;8068;51.322;9.450;2022-10-16T11:06:29;1.13;;;0.80;;
15938;SDS011;8068;51.322;9.450;2022-10-16T11:09:02;1.07;;;0.60;;
15938;SDS011;8068;51.322;9.450;2022-10-16T11:12:21;1.53;;;0.50;;
15938;SDS011;8068;51.322;9.450;2022-10-16T11:14:29;1.10;;;0.50;;
15938;SDS011;8068;51.322;9.450;2022-10-16T11:19:49;1.00;;;0.47;;
15938;SDS011;8068;51.322;9.450;2022-10-16T11:25:21;2.30;;;0.50;;
15938;SDS011;8068;51.322;9.450;2022-10-16T11:30:30;1.97;;;0.90;;
15938;SDS011;8068;51.322;9.450;2022-10-16T11:35:38;1.10;;;0.70;;
15938;SDS011;8068;51.322;9.450;2022-10-16T11:38:34;1.23;;;0.40;;
15938;SDS011;8068;51.322;9.450;2022-10-16T11:41:05;1.30;;;0.60;;
15938;SDS011;8068;51.322;9.450;2022-10-16T11:43:41;2.17;;;0.50;;
15938;SDS011;8068;51.322;9.450;2022-10-16T11:46:11;1.00;;;0.47;;
15938;SDS011;8068;51.322;9.450;2022-10-16T11:54:32;1.10;;;0.40;;
15938;SDS011;8068;51.322;9.450;2022-10-16T11:57:14;1.83;;;0.70;;
15938;SDS011;8068;51.322;9.450;2022-10-16T11:59:48;1.60;;;0.50;;
15938;SDS011;8068;51.322;9.450;2022-10-16T12:05:12;1.37;;;0.40;;
15938;SDS011;8068;51.322;9.450;2022-10-16T12:07:43;3.67;;;0.50;;
15938;SDS011;8068;51.322;9.450;2022-10-16T12:10:28;1.20;;;0.50;;
15938;SDS011;8068;51.322;9.450;2022-10-16T12:12:57;4.03;;;0.60;;
15938;SDS011;8068;51.322;9.450;2022-10-16T12:15:24;2.93;;;0.60;;
15938;SDS011;8068;51.322;9.450;2022-10-16T12:18:21;1.20;;;0.40;;
15938;SDS011;8068;51.322;9.450;2022-10-16T12:20:55;2.07;;;0.50;;
15938;SDS011;8068;51.322;9.450;2022-10-16T12:23:24;1.00;;;0.40;;
15938;SDS011;8068;51.322;9.450;2022-10-16T12:26:00;2.60;;;0.40;;
15938;SDS011;8068;51.322;9.450;2022-10-16T12:28:31;1.10;;;0.50;;
15938;SDS011;8068;51.322;9.450;2022-10-16T12:30:59;2.17;;;0.60;;
15938;SDS011;8068;51.322;9.450;2022-10-16T12:33:34;2.97;;;0.50;;
15938;SDS011;8068;51.322;9.450;2022-10-16T12:36:05;2.20;;;0.70;;
15938;SDS011;8068;51.322;9.450;2022-10-16T12:38:51;1.00;;;0.40;;
15938;SDS011;8068;51.322;9.450;2022-10-16T12:41:28;1.00;;;0.40;;
15938;SDS011;8068;51.322;9.450;2022-10-16T12:43:56;4.13;;;0.80;;
15938;SDS011;8068;51.322;9.450;2022-10-16T12:46:24;1.00;;;0.40;;
15938;SDS011;8068;51.322;9.450;2022-10-16T12:49:36;1.00;;;0.40;;
15938;SDS011;8068;51.322;9.450;2022-10-16T12:51:54;1.10;;;0.50;;
15938;SDS011;8068;51.322;9.450;2022-10-16T12:54:22;1.00;;;0.40;;
15938;SDS011;8068;51.322;9.450;2022-10-16T12:57:04;1.13;;;0.47;;
15938;SDS011;8068;51.322;9.450;2022-10-16T13:00:04;6.10;;;0.50;;
15938;SDS011;8068;51.322;9.450;2022-10-16T13:03:31;1.23;;;0.50;;
15938;SDS011;8068;51.322;9.450;2022-10-16T13:13:58;1.97;;;0.40;;
15938;SDS011;8068;51.322;9.450;2022-10-16T13:17:10;1.50;;;0.50;;
15938;SDS011;8068;51.322;9.450;2022-10-16T13:25:02;1.13;;;0.50;;
15938;SDS011;8068;51.322;9.450;2022-10-16T13:30:19;2.77;;;0.43;;
15938;SDS011;8068;51.322;9.450;2022-10-16T13:35:30;1.10;;;0.50;;
15938;SDS011;8068;51.322;9.450;2022-10-16T13:40:56;1.50;;;0.60;;
15938;SDS011;8068;51.322;9.450;2022-10-16T13:43:39;2.70;;;0.60;;
15938;SDS011;8068;51.322;9.450;2022-10-16T13:46:14;1.40;;;0.43;;
15938;SDS011;8068;51.322;9.450;2022-10-16T13:48:41;1.17;;;0.50;;
15938;SDS011;8068;51.322;9.450;2022-10-16T13:51:14;2.20;;;0.70;;
15938;SDS011;8068;51.322;9.450;2022-10-16T13:53:42;1.10;;;0.50;;
15938;SDS011;8068;51.322;9.450;2022-10-16T13:56:13;2.37;;;0.50;;
15938;SDS011;8068;51.322;9.450;2022-10-16T13:58:40;1.10;;;0.53;;
15938;SDS011;8068;51.322;9.450;2022-10-16T14:01:19;1.10;;;0.50;;
15938;SDS011;8068;51.322;9.450;2022-10-16T14:03:52;1.10;;;0.60;;
15938;SDS011;8068;51.322;9.450;2022-10-16T14:06:20;1.50;;;0.60;;
15938;SDS011;8068;51.322;9.450;2022-10-16T14:08:51;3.57;;;0.63;;
15938;SDS011;8068;51.322;9.450;2022-10-16T14:11:21;1.30;;;0.90;;
15938;SDS011;8068;51.322;9.450;2022-10-16T14:13:49;3.17;;;0.50;;
15938;SDS011;8068;51.322;9.450;2022-10-16T14:16:17;2.37;;;0.80;;
15938;SDS011;8068;51.322;9.450;2022-10-16T14:18:45;3.50;;;0.50;;
15938;SDS011;8068;51.322;9.450;2022-10-16T14:21:21;1.00;;;0.40;;
15938;SDS011;8068;51.322;9.450;2022-10-16T14:23:47;1.10;;;0.40;;
15938;SDS011;8068;51.322;9.450;2022-10-16T14:26:15;1.00;;;0.40;;
15938;SDS011;8068;51.322;9.450;2022-10-16T14:28:43;2.50;;;0.40;;
15938;SDS011;8068;51.322;9.450;2022-10-16T14:33:45;1.97;;;0.40;;
15938;SDS011;8068;51.322;9.450;2022-10-16T14:36:12;2.80;;;0.60;;
15938;SDS011;8068;51.322;9.450;2022-10-16T14:38:40;1.60;;;0.43;;
15938;SDS011;8068;51.322;9.450;2022-10-16T14:41:08;1.00;;;0.40;;
15938;SDS011;8068;51.322;9.450;2022-10-16T14:46:01;5.73;;;0.70;;
15938;SDS011;8068;51.322;9.450;2022-10-16T14:48:29;2.37;;;0.50;;
15938;SDS011;8068;51.322;9.450;2022-10-16T14:50:55;2.90;;;0.47;;
15938;SDS011;8068;51.322;9.450;2022-10-16T14:53:21;1.10;;;0.50;;
15938;SDS011;8068;51.322;9.450;2022-10-16T14:55:47;1.80;;;0.60;;
15938;SDS011;8068;51.322;9.450;2022-10-16T14:58:18;3.93;;;0.60;;
15938;SDS011;8068;51.322;9.450;2022-10-16T15:00:46;12.00;;;0.63;;
15938;SDS011;8068;51.322;9.450;2022-10-16T15:03:12;1.30;;;0.50;;
15938;SDS011;8068;51.322;9.450;2022-10-16T15:05:39;1.90;;;0.67;;
15938;SDS011;8068;51.322;9.450;2022-10-16T15:08:05;1.53;;;1.00;;
15938;SDS011;8068;51.322;9.450;2022-10-16T15:10:31;1.20;;;0.80;;
15938;SDS011;8068;51.322;9.450;2022-10-16T15:12:59;2.80;;;1.07;;
15938;SDS011;8068;51.322;9.450;2022-10-16T15:15:28;1.30;;;0.70;;
15938;SDS011;8068;51.322;9.450;2022-10-16T15:17:58;2.30;;;0.83;;
15938;SDS011;8068;51.322;9.450;2022-10-16T15:20:27;1.10;;;0.67;;
15938;SDS011;8068;51.322;9.450;2022-10-16T15:22:54;7.20;;;0.90;;
15938;SDS011;8068;51.322;9.450;2022-10-16T15:27:58;1.40;;;0.80;;
15938;SDS011;8068;51.322;9.450;2022-10-16T15:30:25;1.37;;;1.00;;
15938;SDS011;8068;51.322;9.450;2022-10-16T15:32:52;1.40;;;0.97;;
15938;SDS011;8068;51.322;9.450;2022-10-16T15:35:18;3.50;;;1.10;;
15938;SDS011;8068;51.322;9.450;2022-10-16T15:37:45;3.20;;;1.27;;
15938;SDS011;8068;51.322;9.450;2022-10-16T15:40:12;1.10;;;0.70;;
15938;SDS011;8068;51.322;9.450;2022-10-16T15:42:39;1.70;;;1.00;;
15938;SDS011;8068;51.322;9.450;2022-10-16T15:45:05;3.00;;;1.10;;
15938;SDS011;8068;51.322;9.450;2022-10-16T15:47:32;1.97;;;0.70;;
15938;SDS011;8068;51.322;9.450;2022-10-16T15:49:58;1.10;;;0.70;;
15938;SDS011;8068;51.322;9.450;2022-10-16T15:52:24;1.77;;;0.67;;
15938;SDS011;8068;51.322;9.450;2022-10-16T15:54:51;1.20;;;0.80;;
15938;SDS011;8068;51.322;9.450;2022-10-16T15:57:19;1.30;;;1.10;;
15938;SDS011;8068;51.322;9.450;2022-10-16T15:59:45;1.20;;;1.00;;
15938;SDS011;8068;51.322;9.450;2022-10-16T16:02:12;1.70;;;0.80;;
15938;SDS011;8068;51.322;9.450;2022-10-16T16:04:38;2.37;;;0.90;;
15938;SDS011;8068;51.322;9.450;2022-10-16T16:07:09;1.20;;;1.10;;
15938;SDS011;8068;51.322;9.450;2022-10-16T16:09:36;4.47;;;1.80;;
15938;SDS011;8068;51.322;9.450;2022-10-16T16:12:02;2.70;;;1.27;;
15938;SDS011;8068;51.322;9.450;2022-10-16T16:14:28;2.97;;;1.50;;
15938;SDS011;8068;51.322;9.450;2022-10-16T16:16:54;1.40;;;1.07;;
15938;SDS011;8068;51.322;9.450;2022-10-16T16:19:21;1.70;;;1.50;;
15938;SDS011;8068;51.322;9.450;2022-10-16T16:21:47;1.97;;;1.87;;
15938;SDS011;8068;51.322;9.450;2022-10-16T16:24:13;1.80;;;1.40;;
15938;SDS011;8068;51.322;9.450;2022-10-16T16:26:39;3.27;;;1.40;;
15938;SDS011;8068;51.322;9.450;2022-10-16T16:29:11;2.13;;;1.40;;
15938;SDS011;8068;51.322;9.450;2022-10-16T16:31:39;7.70;;;1.50;;
15938;SDS011;8068;51.322;9.450;2022-10-16T16:34:05;6.70;;;1.50;;
15938;SDS011;8068;51.322;9.450;2022-10-16T16:36:32;3.83;;;1.80;;
15938;SDS011;8068;51.322;9.450;2022-10-16T16:38:58;3.30;;;1.53;;
15938;SDS011;8068;51.322;9.450;2022-10-16T16:41:26;12.80;;;4.47;;
15938;SDS011;8068;51.322;9.450;2022-10-16T16:43:53;3.40;;;2.57;;
15938;SDS011;8068;51.322;9.450;2022-10-16T16:46:20;4.50;;;3.17;;
15938;SDS011;8068;51.322;9.450;2022-10-16T16:48:46;4.03;;;1.73;;
15938;SDS011;8068;51.322;9.450;2022-10-16T16:51:16;3.13;;;1.90;;
15938;SDS011;8068;51.322;9.450;2022-10-16T16:53:44;4.90;;;2.97;;
15938;SDS011;8068;51.322;9.450;2022-10-16T16:56:11;4.07;;;3.70;;
15938;SDS011;8068;51.322;9.450;2022-10-16T16:58:38;4.47;;;3.50;;
15938;SDS011;8068;51.322;9.450;2022-10-16T17:01:04;2.80;;;2.60;;
15938;SDS011;8068;51.322;9.450;2022-10-16T17:03:48;7.03;;;3.37;;
15938;SDS011;8068;51.322;9.450;2022-10-16T17:06:15;7.40;;;3.57;;
15938;SDS011;8068;51.322;9.450;2022-10-16T17:08:44;4.13;;;3.30;;
15938;SDS011;8068;51.322;9.450;2022-10-16T17:11:13;5.27;;;4.80;;
15938;SDS011;8068;51.322;9.450;2022-10-16T17:13:42;4.20;;;4.00;;